Time;durP1;ratioP1;P1;durP2;ratioP2;P2;SDS_P1;SDS_P2;PMS_P1;PMS_P2;Temp;Humidity;BMP_temperature;BMP_pressure;BME280_temperature;BME280_humidity;BME280_pressure;Samples;Min_cycle;Max_cycle;Signal;HPM_P1;HPM_P2
2021/06/23 00:01:25;;;;;;;11.77;10.87;;;19.20;99.70;;;;;;4917670;28;20178;-60
2021/06/23 00:03:51;;;;;;;11.97;11.07;;;19.20;99.90;;;;;;4936177;29;20254;-60
2021/06/23 00:06:16;;;;;;;11.57;10.57;;;19.20;99.90;;;;;;4935210;29;20182;-60
2021/06/23 00:08:42;;;;;;;12.70;11.57;;;19.10;99.90;;;;;;4934809;29;20438;-59
2021/06/23 00:11:08;;;;;;;13.10;11.93;;;19.10;99.90;;;;;;4935265;29;20190;-58
2021/06/23 00:13:35;;;;;;;12.03;10.90;;;19.10;99.90;;;;;;4935573;29;20190;-58
2021/06/23 00:16:04;;;;;;;12.13;11.23;;;19.10;99.90;;;;;;4941446;28;20628;-58
2021/06/23 00:18:29;;;;;;;11.67;10.60;;;19.10;99.90;;;;;;4939531;29;20472;-58
2021/06/23 00:20:55;;;;;;;12.37;11.27;;;19.10;99.90;;;;;;4950924;29;20427;-58
2021/06/23 00:23:21;;;;;;;12.30;11.40;;;19.10;99.90;;;;;;4953747;29;20253;-59
2021/06/23 00:25:46;;;;;;;11.80;10.80;;;19.10;99.90;;;;;;4945375;29;20712;-59
2021/06/23 00:28:12;;;;;;;11.80;10.80;;;19.10;99.90;;;;;;4954177;29;20182;-59
2021/06/23 00:30:37;;;;;;;11.70;10.50;;;19.10;99.90;;;;;;4951843;29;20593;-59
2021/06/23 00:33:08;;;;;;;12.47;11.47;;;19.10;99.90;;;;;;4947344;28;20284;-59
2021/06/23 00:35:35;;;;;;;12.60;11.57;;;19.10;99.90;;;;;;4924144;28;20180;-59
2021/06/23 00:38:01;;;;;;;12.20;11.20;;;19.00;99.90;;;;;;4944954;28;20580;-59
2021/06/23 00:40:27;;;;;;;12.60;11.60;;;19.00;99.90;;;;;;4949745;28;20443;-59
2021/06/23 00:42:53;;;;;;;12.67;11.57;;;19.00;99.90;;;;;;4937070;29;20781;-59
2021/06/23 00:45:19;;;;;;;12.53;11.50;;;19.00;99.90;;;;;;4936096;29;20709;-59
2021/06/23 00:47:46;;;;;;;11.70;10.80;;;19.00;99.90;;;;;;4940320;28;20273;-58
2021/06/23 00:50:16;;;;;;;11.73;10.73;;;19.10;99.90;;;;;;4958457;28;20420;-59
2021/06/23 00:52:43;;;;;;;12.00;11.00;;;19.10;99.90;;;;;;4951811;28;20597;-59
2021/06/23 00:55:09;;;;;;;12.10;11.20;;;19.10;99.90;;;;;;4946773;29;20453;-58
2021/06/23 00:57:38;;;;;;;11.90;11.00;;;19.10;99.90;;;;;;4939929;29;20508;-59
2021/06/23 01:00:05;;;;;;;12.43;11.33;;;19.10;99.90;;;;;;4950514;29;20440;-59
2021/06/23 01:02:32;;;;;;;13.47;12.47;;;19.10;98.50;;;;;;4952665;29;20541;-59
2021/06/23 01:04:58;;;;;;;12.33;11.33;;;19.10;96.70;;;;;;4939839;29;20950;-59
2021/06/23 01:07:24;;;;;;;11.77;10.87;;;19.10;95.70;;;;;;4934822;29;20438;-59
2021/06/23 01:09:54;;;;;;;13.63;11.00;;;19.20;95.80;;;;;;4934732;29;20429;-59
2021/06/23 01:12:25;;;;;;;12.80;11.70;;;19.10;96.30;;;;;;4949278;28;20982;-59
2021/06/23 01:14:59;;;;;;;12.10;11.10;;;19.10;96.20;;;;;;4934759;29;20458;-59
2021/06/23 01:17:29;;;;;;;11.80;10.90;;;19.10;94.90;;;;;;4936031;29;20466;-59
2021/06/23 01:20:09;;;;;;;11.23;10.33;;;19.10;94.10;;;;;;4952760;29;20449;-58
2021/06/23 01:22:38;;;;;;;11.90;10.77;;;19.10;93.80;;;;;;4951593;29;20518;-59
2021/06/23 01:25:05;;;;;;;11.87;10.80;;;19.10;94.10;;;;;;4935223;29;20457;-60
2021/06/23 01:27:31;;;;;;;10.80;10.00;;;19.20;91.70;;;;;;4951375;29;20523;-59
2021/06/23 01:29:57;;;;;;;11.20;10.30;;;19.20;91.80;;;;;;4938143;29;20483;-59
2021/06/23 01:32:22;;;;;;;10.97;10.17;;;19.20;92.10;;;;;;4933575;29;20485;-58
2021/06/23 01:34:48;;;;;;;11.43;10.50;;;19.20;89.80;;;;;;4951848;29;20196;-59
2021/06/23 01:37:13;;;;;;;11.17;10.27;;;19.20;90.60;;;;;;4935412;29;20197;-59
2021/06/23 01:39:39;;;;;;;11.20;10.40;;;19.20;87.40;;;;;;4934192;29;20198;-58
2021/06/23 01:42:05;;;;;;;11.17;10.20;;;19.20;71.50;;;;;;4948641;29;20192;-59
2021/06/23 01:44:31;;;;;;;10.50;9.60;;;19.10;56.70;;;;;;4947737;29;20186;-59
2021/06/23 01:46:57;;;;;;;10.23;9.43;;;19.10;54.50;;;;;;4931675;29;20273;-59
2021/06/23 01:49:25;;;;;;;10.80;10.03;;;19.10;48.20;;;;;;4953856;28;20958;-59
2021/06/23 01:51:51;;;;;;;10.90;10.10;;;19.10;44.50;;;;;;4947272;28;20195;-59
2021/06/23 01:54:17;;;;;;;10.03;9.30;;;19.10;43.80;;;;;;4948298;28;20458;-59
2021/06/23 01:56:43;;;;;;;10.27;9.10;;;19.10;45.80;;;;;;4941471;29;20450;-59
2021/06/23 01:59:08;;;;;;;10.37;9.57;;;19.10;38.10;;;;;;4939138;29;20237;-59
2021/06/23 02:02:05;;;;;;;9.10;8.40;;;19.10;38.10;;;;;;4935532;29;20257;-59
2021/06/23 02:04:42;;;;;;;9.70;8.90;;;19.10;43.50;;;;;;4933753;29;20590;-59
2021/06/23 02:07:27;;;;;;;10.30;9.50;;;19.00;39.10;;;;;;4939965;29;20449;-58
2021/06/23 02:10:04;;;;;;;10.30;9.40;;;19.10;32.60;;;;;;4933299;29;20479;-59
2021/06/23 02:12:30;;;;;;;9.60;8.90;;;19.10;27.60;;;;;;4933219;28;20496;-59
2021/06/23 02:15:02;;;;;;;9.17;8.47;;;19.00;29.30;;;;;;4938342;29;20446;-59
2021/06/23 02:17:30;;;;;;;9.17;8.37;;;19.00;32.00;;;;;;4933847;29;20676;-59
2021/06/23 02:19:57;;;;;;;10.00;9.30;;;19.10;29.80;;;;;;4937630;29;20441;-59
2021/06/23 02:22:27;;;;;;;9.47;8.77;;;19.10;32.30;;;;;;4932656;29;20521;-59
2021/06/23 02:25:01;;;;;;;10.07;9.17;;;19.00;32.90;;;;;;4934548;29;20421;-59
2021/06/23 02:27:27;;;;;;;9.60;8.90;;;19.00;35.80;;;;;;4933764;29;20456;-58
2021/06/23 02:29:52;;;;;;;9.93;9.07;;;19.00;35.10;;;;;;4936430;28;20468;-59
2021/06/23 02:32:23;;;;;;;9.77;9.07;;;19.00;30.40;;;;;;4936739;29;20198;-59
2021/06/23 02:34:54;;;;;;;9.03;8.33;;;19.00;30.20;;;;;;4942575;29;21066;-59
2021/06/23 02:37:21;;;;;;;10.67;9.73;;;19.00;29.80;;;;;;4932269;29;20492;-59
2021/06/23 02:39:47;;;;;;;9.77;8.97;;;19.00;29.10;;;;;;4934986;29;20972;-59
2021/06/23 02:42:13;;;;;;;8.97;8.37;;;19.00;30.00;;;;;;4939502;29;20970;-59
2021/06/23 02:44:40;;;;;;;9.50;8.70;;;19.00;31.60;;;;;;4936541;29;20414;-59
2021/06/23 02:47:06;;;;;;;10.43;9.43;;;19.00;36.20;;;;;;4935275;29;20533;-59
2021/06/23 02:49:33;;;;;;;10.00;9.20;;;19.00;27.70;;;;;;4943272;29;20811;-59
2021/06/23 02:51:59;;;;;;;9.67;8.97;;;19.00;27.00;;;;;;4933178;29;20453;-59
2021/06/23 02:54:25;;;;;;;10.40;9.47;;;19.00;25.40;;;;;;4933636;29;20522;-58
2021/06/23 02:56:52;;;;;;;9.43;8.53;;;19.00;22.30;;;;;;4932740;29;20433;-59
2021/06/23 02:59:20;;;;;;;10.00;9.20;;;19.00;21.10;;;;;;4934853;29;20571;-59
2021/06/23 03:01:47;;;;;;;9.10;8.40;;;19.00;16.90;;;;;;4931868;29;21113;-60
2021/06/23 03:04:13;;;;;;;9.63;8.93;;;19.00;14.80;;;;;;4945051;29;20445;-59
2021/06/23 03:06:39;;;;;;;9.20;8.50;;;18.90;14.70;;;;;;4938859;28;20492;-60
2021/06/23 03:09:05;;;;;;;9.40;8.57;;;18.90;15.80;;;;;;4934193;28;20198;-60
2021/06/23 03:11:35;;;;;;;10.00;9.13;;;18.90;18.70;;;;;;4954107;28;20197;-60
2021/06/23 03:14:00;;;;;;;8.90;8.20;;;18.90;16.90;;;;;;4951405;28;20444;-60
2021/06/23 03:16:27;;;;;;;8.97;8.37;;;18.90;15.90;;;;;;4932625;29;20481;-58
2021/06/23 03:18:53;;;;;;;8.83;8.23;;;18.90;19.00;;;;;;4942160;29;20237;-59
2021/06/23 03:21:19;;;;;;;9.33;8.63;;;18.90;19.90;;;;;;4942506;29;20449;-59
2021/06/23 03:23:49;;;;;;;9.67;8.90;;;18.80;18.40;;;;;;4940959;29;21194;-59
2021/06/23 03:26:15;;;;;;;9.17;8.47;;;18.80;18.30;;;;;;4941823;29;20517;-59
2021/06/23 03:28:40;;;;;;;8.90;8.20;;;18.90;20.60;;;;;;4931192;29;20448;-59
2021/06/23 03:31:06;;;;;;;10.60;9.70;;;18.90;19.00;;;;;;4933351;29;20272;-60
2021/06/23 03:33:32;;;;;;;9.70;8.90;;;18.90;14.10;;;;;;4935441;28;20194;-59
2021/06/23 03:35:57;;;;;;;9.63;8.73;;;18.90;13.50;;;;;;4942535;28;20273;-59
2021/06/23 03:38:23;;;;;;;10.17;9.40;;;18.90;17.10;;;;;;4938243;29;20292;-59
2021/06/23 03:40:49;;;;;;;9.30;8.60;;;18.90;18.60;;;;;;4932403;29;20625;-58
2021/06/23 03:43:15;;;;;;;9.27;8.60;;;18.90;16.80;;;;;;4938938;28;20300;-58
2021/06/23 03:45:40;;;;;;;9.90;9.20;;;18.90;17.20;;;;;;4939128;29;20221;-58
2021/06/23 03:48:06;;;;;;;10.77;9.87;;;19.00;16.70;;;;;;4933286;29;20284;-59
2021/06/23 03:50:33;;;;;;;9.90;9.17;;;18.90;16.10;;;;;;4934467;29;20226;-59
2021/06/23 03:52:59;;;;;;;11.03;10.13;;;19.00;16.50;;;;;;4960123;28;20441;-59
2021/06/23 03:55:27;;;;;;;9.90;9.13;;;19.10;11.20;;;;;;4935258;29;21273;-59
2021/06/23 03:57:54;;;;;;;10.00;9.10;;;19.10;9.00;;;;;;4947193;29;20241;-59
2021/06/23 04:00:22;;;;;;;9.50;8.70;;;19.10;10.20;;;;;;4944214;29;21065;-59
2021/06/23 04:02:48;;;;;;;10.30;9.30;;;19.00;12.50;;;;;;4933577;29;20439;-59
2021/06/23 04:05:14;;;;;;;10.27;9.27;;;19.00;15.80;;;;;;4937136;29;20894;-59
2021/06/23 04:07:40;;;;;;;9.97;9.17;;;19.10;18.40;;;;;;4942561;29;20193;-59
2021/06/23 04:10:08;;;;;;;9.93;9.13;;;19.10;20.20;;;;;;4933602;29;20801;-58
2021/06/23 04:12:34;;;;;;;9.40;8.70;;;19.10;23.00;;;;;;4937042;29;20437;-60
2021/06/23 04:14:59;;;;;;;9.60;8.80;;;19.10;23.50;;;;;;4936539;29;20424;-60
2021/06/23 04:17:25;;;;;;;9.80;9.00;;;19.20;24.50;;;;;;4929959;29;20438;-59
2021/06/23 04:19:50;;;;;;;9.87;9.17;;;19.20;24.60;;;;;;4927512;29;20289;-59
2021/06/23 04:22:17;;;;;;;9.90;9.10;;;19.20;24.70;;;;;;4929214;29;20194;-59
2021/06/23 04:24:42;;;;;;;10.00;9.20;;;19.30;22.70;;;;;;4931658;29;20212;-59
2021/06/23 04:27:08;;;;;;;10.20;9.40;;;19.30;20.10;;;;;;4930284;29;20533;-59
2021/06/23 04:29:34;;;;;;;10.57;9.67;;;19.40;21.30;;;;;;4927722;29;20702;-59
2021/06/23 04:31:59;;;;;;;10.67;9.77;;;19.50;12.70;;;;;;4935022;29;21223;-59
2021/06/23 04:34:25;;;;;;;10.33;9.63;;;19.50;10.60;;;;;;4935502;28;20191;-59
2021/06/23 04:36:50;;;;;;;10.33;9.43;;;19.70;8.60;;;;;;4925574;29;21207;-59
2021/06/23 04:39:16;;;;;;;10.53;9.73;;;19.60;8.80;;;;;;4930481;28;20212;-59
2021/06/23 04:41:42;;;;;;;9.77;8.97;;;19.70;8.40;;;;;;4938194;28;20272;-59
2021/06/23 04:44:07;;;;;;;10.00;9.20;;;19.70;6.10;;;;;;4950103;29;20619;-59
2021/06/23 04:46:33;;;;;;;9.77;8.77;;;19.80;1.00;;;;;;4949923;28;20179;-59
2021/06/23 04:49:00;;;;;;;9.73;8.93;;;19.80;1.00;;;;;;4953415;29;20177;-59
2021/06/23 04:51:26;;;;;;;10.73;9.93;;;19.80;1.00;;;;;;4973018;28;20420;-59
2021/06/23 04:53:52;;;;;;;10.40;9.60;;;19.80;1.00;;;;;;4959659;28;20427;-59
2021/06/23 04:56:18;;;;;;;10.73;9.37;;;19.80;1.00;;;;;;4973277;28;20422;-60
2021/06/23 04:58:44;;;;;;;10.97;10.10;;;19.90;1.00;;;;;;4955532;28;20336;-59
2021/06/23 05:01:09;;;;;;;11.13;9.57;;;19.80;1.00;;;;;;4934983;29;20773;-59
2021/06/23 05:03:35;;;;;;;10.47;9.43;;;19.90;1.00;;;;;;4972468;28;20175;-59
2021/06/23 05:06:01;;;;;;;11.80;10.80;;;19.90;1.00;;;;;;4973274;28;20188;-59
2021/06/23 05:08:27;;;;;;;10.20;9.47;;;19.80;1.00;;;;;;4973257;28;20175;-59
2021/06/23 05:10:54;;;;;;;11.20;10.20;;;19.80;1.00;;;;;;4950099;28;20504;-59
2021/06/23 05:13:20;;;;;;;9.70;9.00;;;19.80;1.00;;;;;;4944511;28;20441;-58
2021/06/23 05:15:46;;;;;;;11.13;10.07;;;19.80;1.00;;;;;;4935404;28;20569;-59
2021/06/23 05:18:13;;;;;;;9.23;8.43;;;19.80;1.00;;;;;;4934605;29;20497;-58
2021/06/23 05:20:38;;;;;;;10.83;9.83;;;19.90;1.00;;;;;;4935266;29;21660;-59
2021/06/23 05:23:04;;;;;;;9.87;8.87;;;20.00;1.00;;;;;;4934604;29;20434;-59
2021/06/23 05:25:30;;;;;;;10.13;9.33;;;20.00;1.00;;;;;;4933371;29;20185;-59
2021/06/23 05:27:56;;;;;;;11.00;9.90;;;20.00;1.00;;;;;;4935327;29;20182;-59
2021/06/23 05:30:22;;;;;;;9.70;9.00;;;20.00;1.00;;;;;;4934925;29;20185;-59
2021/06/23 05:32:47;;;;;;;10.20;9.40;;;20.10;1.00;;;;;;4936939;28;20538;-59
2021/06/23 05:35:13;;;;;;;10.60;9.60;;;20.10;1.00;;;;;;4958459;28;20181;-59
2021/06/23 05:37:39;;;;;;;11.07;10.20;;;20.10;1.00;;;;;;4952148;29;20192;-59
2021/06/23 05:40:06;;;;;;;11.10;10.20;;;20.10;1.00;;;;;;4935775;29;20431;-58
2021/06/23 05:42:31;;;;;;;11.53;10.53;;;20.20;1.00;;;;;;4942741;29;20634;-59
2021/06/23 05:44:57;;;;;;;10.93;10.13;;;20.30;1.00;;;;;;4934218;29;20430;-59
2021/06/23 05:47:23;;;;;;;11.57;10.50;;;20.30;1.00;;;;;;4940721;29;20196;-59
2021/06/23 05:49:48;;;;;;;10.47;9.67;;;20.20;1.00;;;;;;4934188;29;20414;-58
2021/06/23 05:52:14;;;;;;;11.20;10.20;;;20.10;1.00;;;;;;4934385;29;20272;-58
2021/06/23 05:54:39;;;;;;;11.23;10.20;;;20.10;1.00;;;;;;4937354;29;20590;-59
2021/06/23 05:57:05;;;;;;;10.30;9.40;;;20.10;1.00;;;;;;4941347;28;20207;-59
2021/06/23 05:59:31;;;;;;;10.30;9.50;;;20.10;1.00;;;;;;4933067;29;20205;-59
2021/06/23 06:01:57;;;;;;;11.03;10.13;;;20.10;1.00;;;;;;4933368;29;20187;-57
2021/06/23 06:04:22;;;;;;;12.43;11.37;;;20.10;1.00;;;;;;4947423;29;20648;-59
2021/06/23 06:06:48;;;;;;;11.53;10.53;;;20.10;1.00;;;;;;4934634;29;20448;-58
2021/06/23 06:09:14;;;;;;;10.67;9.87;;;20.10;1.00;;;;;;4940788;29;20252;-58
2021/06/23 06:11:39;;;;;;;12.10;10.70;;;20.20;1.00;;;;;;4951982;29;20252;-57
2021/06/23 06:14:05;;;;;;;11.37;10.27;;;20.30;1.00;;;;;;4952505;29;20192;-58
2021/06/23 06:16:32;;;;;;;11.27;10.30;;;20.30;1.00;;;;;;4941187;29;20252;-59
2021/06/23 06:18:57;;;;;;;10.63;9.73;;;20.30;1.00;;;;;;4949575;29;21058;-59
2021/06/23 06:21:23;;;;;;;10.80;9.90;;;20.30;1.00;;;;;;4952194;29;20499;-58
2021/06/23 06:23:49;;;;;;;11.30;10.50;;;20.40;1.00;;;;;;4952141;29;20543;-58
2021/06/23 06:26:14;;;;;;;11.57;10.57;;;20.40;1.00;;;;;;4951834;29;20420;-59
2021/06/23 06:28:40;;;;;;;11.20;10.20;;;20.40;1.00;;;;;;4952054;28;20263;-58
2021/06/23 06:31:07;;;;;;;10.73;9.73;;;20.50;1.00;;;;;;4946676;29;20189;-58
2021/06/23 06:33:33;;;;;;;11.50;10.57;;;20.50;1.00;;;;;;4940467;29;20194;-58
2021/06/23 06:35:58;;;;;;;11.20;10.30;;;20.60;1.00;;;;;;4952465;28;20443;-58
2021/06/23 06:38:24;;;;;;;11.33;10.53;;;20.70;1.00;;;;;;4942814;29;20457;-59
2021/06/23 06:40:50;;;;;;;11.83;10.77;;;20.70;1.00;;;;;;4935663;28;20196;-60
2021/06/23 06:43:16;;;;;;;11.20;10.10;;;20.80;1.00;;;;;;4940042;28;20269;-57
2021/06/23 06:45:41;;;;;;;12.03;10.93;;;20.80;1.00;;;;;;4931573;29;20253;-58
2021/06/23 06:48:07;;;;;;;11.67;10.77;;;20.80;1.00;;;;;;4944045;28;20186;-58
2021/06/23 06:50:33;;;;;;;12.50;11.50;;;20.80;1.00;;;;;;4951779;28;20215;-58
2021/06/23 06:52:59;;;;;;;12.63;11.63;;;20.80;1.00;;;;;;4932998;29;20417;-59
2021/06/23 06:55:24;;;;;;;12.70;11.47;;;20.90;1.00;;;;;;4932171;29;20182;-57
2021/06/23 06:57:51;;;;;;;12.80;11.50;;;20.90;1.00;;;;;;4937028;29;20184;-59
2021/06/23 07:00:19;;;;;;;12.47;11.40;;;21.00;1.00;;;;;;4931739;29;20178;-59
2021/06/23 07:02:45;;;;;;;12.80;11.70;;;21.00;1.00;;;;;;4932189;29;20521;-56
2021/06/23 07:05:11;;;;;;;12.63;11.63;;;21.10;1.00;;;;;;4932408;29;20512;-59
2021/06/23 07:07:37;;;;;;;13.73;12.53;;;21.20;1.00;;;;;;4931752;29;20445;-58
2021/06/23 07:10:04;;;;;;;12.90;11.60;;;21.10;1.00;;;;;;4933477;29;20512;-59
2021/06/23 07:12:31;;;;;;;13.13;12.07;;;21.00;1.00;;;;;;4933947;29;20190;-59
2021/06/23 07:14:56;;;;;;;12.70;11.50;;;21.00;1.00;;;;;;4934933;29;20417;-59
2021/06/23 07:17:22;;;;;;;12.60;11.53;;;21.10;1.00;;;;;;4934466;29;20785;-59
2021/06/23 07:19:47;;;;;;;14.90;13.30;;;21.10;1.00;;;;;;4932206;29;20234;-58
2021/06/23 07:22:13;;;;;;;13.60;12.40;;;21.10;1.00;;;;;;4936285;29;20181;-59
2021/06/23 07:24:38;;;;;;;13.60;12.50;;;21.10;1.00;;;;;;4939238;29;20264;-59
2021/06/23 07:27:04;;;;;;;13.73;12.60;;;21.10;1.00;;;;;;4946286;29;20192;-59
2021/06/23 07:29:30;;;;;;;12.63;11.40;;;21.10;1.00;;;;;;4949111;29;20177;-60
2021/06/23 07:32:00;;;;;;;13.17;11.97;;;21.10;1.00;;;;;;4939496;28;20519;-60
2021/06/23 07:36:57;;;;;;;14.77;13.20;;;21.10;1.00;;;;;;4943716;29;21118;-59
2021/06/23 07:39:23;;;;;;;12.77;11.67;;;21.00;1.00;;;;;;4937016;29;20500;-58
2021/06/23 07:41:50;;;;;;;14.63;12.77;;;21.00;1.00;;;;;;4942787;29;20455;-59
2021/06/23 07:44:41;;;;;;;12.20;11.00;;;20.90;1.00;;;;;;4936795;29;20457;-59
2021/06/23 07:47:10;;;;;;;13.70;12.40;;;20.90;1.00;;;;;;4947204;28;20515;-59
2021/06/23 07:49:39;;;;;;;13.67;12.27;;;20.90;1.00;;;;;;4949406;29;20916;-59
2021/06/23 07:52:10;;;;;;;13.00;11.90;;;20.90;1.00;;;;;;4919090;29;20506;-59
2021/06/23 08:08:11;;;;;;;13.70;12.43;;;20.90;1.00;;;;;;4930691;29;20801;-59
2021/06/23 08:08:54;;;;;;;13.50;12.30;;;20.90;1.00;;;;;;4936708;29;20831;-59
2021/06/23 08:11:22;;;;;;;14.23;13.03;;;21.00;1.00;;;;;;4949962;29;20429;-59
2021/06/23 08:13:48;;;;;;;14.70;13.40;;;21.10;1.00;;;;;;4950320;29;20413;-60
2021/06/23 08:16:15;;;;;;;15.73;14.20;;;21.10;1.00;;;;;;4926052;29;20456;-60
2021/06/23 08:18:40;;;;;;;15.37;13.97;;;21.20;1.00;;;;;;4932460;29;20484;-60
2021/06/23 08:21:06;;;;;;;15.53;14.03;;;21.10;1.00;;;;;;4951026;28;20401;-59
2021/06/23 08:23:32;;;;;;;15.80;14.50;;;21.20;1.00;;;;;;4944122;28;20558;-60
2021/06/23 08:25:58;;;;;;;15.97;14.50;;;21.10;1.00;;;;;;4935035;29;20449;-59
2021/06/23 08:28:23;;;;;;;14.87;13.57;;;20.90;1.00;;;;;;4943890;29;20635;-60
2021/06/23 08:30:50;;;;;;;15.03;13.63;;;20.90;1.00;;;;;;4951029;29;20189;-59
2021/06/23 08:33:15;;;;;;;14.47;13.27;;;20.90;1.00;;;;;;4933461;29;20926;-59
2021/06/23 08:35:41;;;;;;;16.43;14.93;;;20.90;1.00;;;;;;4937489;28;20448;-59
2021/06/23 08:38:07;;;;;;;15.30;13.80;;;20.80;1.00;;;;;;4950415;28;20266;-57
2021/06/23 08:40:34;;;;;;;14.50;13.20;;;20.70;1.00;;;;;;4953923;29;20177;-58
2021/06/23 08:42:59;;;;;;;15.97;14.63;;;20.60;5.40;;;;;;4942206;29;20181;-59
2021/06/23 08:45:25;;;;;;;15.70;14.30;;;20.50;10.10;;;;;;4934486;29;20428;-60
2021/06/23 08:47:51;;;;;;;15.37;14.10;;;20.40;11.30;;;;;;4953106;28;20286;-59
2021/06/23 08:50:20;;;;;;;16.03;14.73;;;20.40;17.70;;;;;;4946115;28;20217;-59
2021/06/23 08:52:46;;;;;;;15.00;13.60;;;20.40;18.60;;;;;;4946484;29;20224;-60
2021/06/23 08:55:13;;;;;;;15.83;14.33;;;20.40;17.30;;;;;;4939663;29;20526;-60
2021/06/23 08:57:39;;;;;;;18.03;16.20;;;20.50;17.20;;;;;;4939614;29;20436;-59
2021/06/23 09:00:08;;;;;;;17.00;15.50;;;20.60;9.80;;;;;;4939712;29;20486;-59
2021/06/23 09:02:35;;;;;;;17.80;16.00;;;20.60;7.40;;;;;;4934965;29;20201;-60
2021/06/23 09:05:12;;;;;;;16.93;15.47;;;20.60;5.20;;;;;;4930643;29;20447;-60
2021/06/23 09:07:52;;;;;;;16.47;15.07;;;20.60;4.30;;;;;;4952938;29;20436;-59
2021/06/23 09:10:21;;;;;;;17.40;15.70;;;20.70;6.60;;;;;;4936402;29;21179;-59
2021/06/23 09:13:08;;;;;;;16.20;14.80;;;20.80;1.00;;;;;;4934727;29;20415;-59
2021/06/23 09:16:00;;;;;;;17.57;15.97;;;20.80;1.00;;;;;;4935448;29;20847;-59
2021/06/23 09:18:28;;;;;;;17.00;15.50;;;20.80;2.70;;;;;;4934087;29;21002;-59
2021/06/23 09:21:05;;;;;;;15.60;14.20;;;20.80;9.30;;;;;;4933897;29;20459;-59
2021/06/23 09:23:39;;;;;;;15.37;14.07;;;20.80;3.90;;;;;;4935001;29;20781;-59
2021/06/23 09:26:13;;;;;;;17.03;15.53;;;20.90;3.20;;;;;;4933984;29;20444;-59
2021/06/23 09:28:40;;;;;;;17.13;15.53;;;21.10;1.00;;;;;;4934955;29;20548;-59
2021/06/23 09:31:06;;;;;;;15.83;14.50;;;21.10;1.00;;;;;;4934256;29;20480;-59
2021/06/23 09:33:33;;;;;;;15.10;13.83;;;21.20;1.00;;;;;;4954782;28;20453;-59
2021/06/23 09:36:02;;;;;;;16.00;14.50;;;21.10;1.00;;;;;;4939491;28;20456;-59
2021/06/23 09:38:37;;;;;;;16.63;15.13;;;21.20;1.00;;;;;;4934713;29;21066;-60
2021/06/23 09:41:17;;;;;;;17.47;15.80;;;21.10;3.30;;;;;;4932453;29;21297;-59
2021/06/23 09:43:43;;;;;;;16.30;15.00;;;21.10;1.00;;;;;;4933835;29;20418;-59
2021/06/23 09:46:21;;;;;;;17.10;15.47;;;21.00;1.00;;;;;;4936441;29;20482;-60
2021/06/23 09:48:47;;;;;;;17.20;15.50;;;20.90;1.00;;;;;;4933267;29;20508;-60
2021/06/23 09:51:16;;;;;;;17.90;16.00;;;20.80;7.00;;;;;;4933104;29;20425;-59
2021/06/23 09:53:42;;;;;;;17.37;15.47;;;20.90;1.20;;;;;;4933061;29;20939;-59
2021/06/23 09:56:25;;;;;;;17.20;15.60;;;20.80;1.00;;;;;;4933418;29;20661;-59
2021/06/23 09:58:53;;;;;;;19.83;17.83;;;20.70;4.50;;;;;;4939625;29;20224;-58
2021/06/23 10:01:18;;;;;;;19.10;17.10;;;20.60;1.00;;;;;;4931066;29;20596;-59
2021/06/23 10:04:00;;;;;;;19.63;17.83;;;20.50;1.00;;;;;;4934415;29;20428;-59
2021/06/23 10:06:46;;;;;;;20.20;18.27;;;20.50;1.00;;;;;;4933512;29;20237;-59
2021/06/23 10:09:23;;;;;;;20.63;18.53;;;20.40;3.00;;;;;;4932248;29;20427;-60
2021/06/23 10:12:10;;;;;;;20.60;17.80;;;20.40;2.10;;;;;;4934424;29;20433;-59
2021/06/23 10:14:45;;;;;;;18.97;17.07;;;20.30;15.40;;;;;;4932687;29;20524;-58
2021/06/23 10:17:12;;;;;;;19.40;16.40;;;20.40;18.00;;;;;;4934549;29;20474;-59
2021/06/23 10:19:39;;;;;;;20.43;18.47;;;20.40;23.70;;;;;;4951297;28;20590;-59
2021/06/23 10:22:06;;;;;;;21.97;19.67;;;20.30;28.10;;;;;;4951762;29;20411;-59
2021/06/23 10:24:33;;;;;;;22.97;19.30;;;20.30;36.90;;;;;;4964380;28;20892;-59
2021/06/23 10:27:03;;;;;;;22.60;19.43;;;20.30;59.20;;;;;;4970887;28;20419;-59
2021/06/23 10:29:31;;;;;;;21.23;19.20;;;20.30;69.60;;;;;;4944775;28;20496;-60
2021/06/23 10:31:58;;;;;;;21.77;19.60;;;20.30;77.80;;;;;;4932524;29;20915;-61
2021/06/23 10:34:25;;;;;;;20.83;18.73;;;20.30;65.60;;;;;;4932549;29;20541;-60
2021/06/23 10:36:52;;;;;;;24.43;21.93;;;20.10;84.10;;;;;;4946957;28;20448;-60
2021/06/23 10:39:19;;;;;;;23.13;20.83;;;20.00;95.00;;;;;;4932005;29;20469;-60
2021/06/23 10:41:50;;;;;;;22.80;20.50;;;20.00;99.50;;;;;;4931675;29;20428;-59
2021/06/23 10:44:22;;;;;;;23.23;20.83;;;19.90;92.90;;;;;;4930612;29;20420;-59
2021/06/23 10:46:56;;;;;;;21.60;19.50;;;19.80;93.70;;;;;;4937175;28;20418;-60
2021/06/23 10:49:46;;;;;;;24.00;21.50;;;19.80;99.90;;;;;;4955090;28;20422;-59
2021/06/23 10:52:21;;;;;;;21.90;19.70;;;19.80;99.90;;;;;;4926251;29;20445;-59
2021/06/23 10:54:51;;;;;;;23.33;21.07;;;19.80;99.90;;;;;;4934164;29;20434;-59
2021/06/23 10:57:43;;;;;;;23.67;21.37;;;19.90;99.90;;;;;;4944321;29;20825;-60
2021/06/23 11:00:12;;;;;;;25.00;22.60;;;19.90;99.90;;;;;;4934575;29;21388;-60
2021/06/23 11:02:41;;;;;;;23.53;21.13;;;19.90;99.90;;;;;;4931038;29;20421;-60
2021/06/23 11:05:08;;;;;;;25.83;22.67;;;19.90;99.90;;;;;;4935848;29;20521;-58
2021/06/23 11:07:43;;;;;;;29.70;22.87;;;19.90;99.90;;;;;;4951176;29;20421;-59
2021/06/23 11:12:50;;;;;;;26.17;23.60;;;19.70;99.90;;;;;;4950536;29;20478;-59
2021/06/23 11:15:36;;;;;;;27.07;24.30;;;19.80;99.90;;;;;;4943606;29;20597;-60
2021/06/23 11:18:38;;;;;;;27.30;24.70;;;19.80;99.90;;;;;;4931302;29;20974;-60
2021/06/23 11:21:07;;;;;;;26.37;23.77;;;19.70;99.90;;;;;;4938482;29;20437;-61
2021/06/23 11:24:02;;;;;;;29.37;26.30;;;19.60;99.90;;;;;;4941287;29;20951;-60
2021/06/23 11:26:27;;;;;;;28.17;25.47;;;19.60;99.90;;;;;;4939237;29;20475;-59
2021/06/23 11:28:57;;;;;;;26.93;24.23;;;19.70;99.90;;;;;;4939966;29;20417;-60
2021/06/23 11:31:41;;;;;;;29.03;26.17;;;19.70;99.90;;;;;;4943804;29;20181;-60
2021/06/23 11:34:07;;;;;;;27.53;24.87;;;19.70;99.90;;;;;;4949735;29;20439;-60
2021/06/23 11:36:32;;;;;;;28.90;26.00;;;19.70;99.90;;;;;;4949336;28;20417;-59
2021/06/23 11:38:58;;;;;;;27.30;24.40;;;19.80;99.90;;;;;;4943066;29;20894;-59
2021/06/23 11:41:24;;;;;;;27.57;24.80;;;19.90;99.90;;;;;;4931631;29;20581;-59
2021/06/23 11:43:50;;;;;;;27.33;24.47;;;19.90;99.90;;;;;;4930977;29;20680;-59
2021/06/23 11:46:17;;;;;;;27.00;24.30;;;20.10;99.90;;;;;;4929714;29;20434;-60
2021/06/23 11:48:42;;;;;;;26.73;24.13;;;20.10;99.90;;;;;;4942906;28;20471;-60
2021/06/23 11:51:09;;;;;;;24.67;22.30;;;20.10;99.90;;;;;;4933759;28;20422;-59
2021/06/23 11:53:35;;;;;;;25.53;23.10;;;20.10;99.90;;;;;;4930089;29;20196;-60
2021/06/23 11:56:01;;;;;;;26.33;23.00;;;20.10;99.90;;;;;;4930846;29;20422;-59
2021/06/23 11:58:27;;;;;;;25.73;23.00;;;20.10;99.90;;;;;;4933636;29;20509;-59
2021/06/23 12:00:53;;;;;;;27.90;25.20;;;20.10;99.90;;;;;;4934032;29;20233;-59
2021/06/23 12:03:19;;;;;;;24.77;22.27;;;20.10;99.90;;;;;;4920531;29;20449;-59
2021/06/23 12:05:46;;;;;;;27.33;24.57;;;20.10;99.90;;;;;;4934693;29;20188;-59
2021/06/23 12:08:12;;;;;;;25.50;22.27;;;20.10;99.90;;;;;;4934848;29;20426;-60
2021/06/23 12:10:39;;;;;;;24.17;21.77;;;20.10;99.90;;;;;;4935531;29;20494;-59
2021/06/23 12:13:05;;;;;;;24.37;22.00;;;20.10;99.90;;;;;;4934394;29;21093;-60
2021/06/23 12:15:31;;;;;;;24.87;22.53;;;20.20;99.90;;;;;;4935579;29;20426;-60
2021/06/23 12:17:59;;;;;;;24.77;22.27;;;20.30;99.90;;;;;;4934114;29;20495;-60
2021/06/23 12:20:26;;;;;;;23.40;21.20;;;20.20;99.90;;;;;;4934558;29;20511;-60
2021/06/23 12:22:59;;;;;;;23.97;21.57;;;20.40;99.90;;;;;;4934938;29;20420;-60
2021/06/23 12:25:27;;;;;;;24.73;22.13;;;20.50;99.90;;;;;;4934202;29;20409;-59
2021/06/23 12:27:53;;;;;;;23.40;21.00;;;20.60;99.90;;;;;;4935758;29;20443;-60
2021/06/23 12:30:21;;;;;;;22.40;20.33;;;20.70;99.90;;;;;;4916409;29;20459;-58
2021/06/23 12:32:46;;;;;;;22.67;20.40;;;20.90;93.90;;;;;;4934938;29;20420;-58
2021/06/23 12:35:13;;;;;;;21.80;19.60;;;21.00;94.40;;;;;;4937399;28;20527;-59
2021/06/23 12:37:41;;;;;;;22.07;19.87;;;21.10;97.60;;;;;;4938903;29;20201;-59
2021/06/23 12:40:07;;;;;;;22.63;20.53;;;21.40;98.10;;;;;;4921245;29;20984;-59
2021/06/23 12:42:33;;;;;;;21.93;19.93;;;21.50;91.60;;;;;;4912849;29;20522;-59
2021/06/23 12:44:59;;;;;;;21.83;19.70;;;21.80;94.30;;;;;;4915437;29;20518;-58
2021/06/23 12:47:24;;;;;;;20.07;18.33;;;22.10;62.30;;;;;;4914597;29;20246;-59
2021/06/23 12:49:50;;;;;;;19.33;17.63;;;22.40;38.20;;;;;;4915612;29;20198;-59
2021/06/23 12:52:16;;;;;;;19.17;17.57;;;22.60;10.70;;;;;;4916082;29;20191;-59
2021/06/23 12:54:41;;;;;;;19.93;18.23;;;22.70;4.90;;;;;;4916929;29;20206;-59
2021/06/23 12:57:07;;;;;;;19.63;17.93;;;22.80;11.70;;;;;;4915839;29;20199;-59